BAW23T KATL-EGLL
Flight info
| Callsign | BAW23T |
|---|---|
| Flight time | N/A |
| Altitude | 35000 |
| Route | HRTWL Q64 SAWED Q108 ZJAAY Q167 RIFLE DCT YAHOO DCT KANNI N171E PORTI/M083F370 NATX XETBO/N0474F390 DCT EVRIN DCT JETZI DCT AMFUL DCT ORZEB/N0403F230 P2 SIRIC |
| Aircraft | B77W/H-SDE1E3FGHIJ3J4J5J6M1M2P2RWXYZ/LB1D1 |
Departure
| Time | N/A |
|---|---|
| Airport | Hartsfield Jackson Atlanta International Airport (KATL) |
Arrival
| Time | 2026-05-04 09:37 |
|---|---|
| Airport | London Heathrow Airport (EGLL) |
| Time | Latitude | Longitude | Altitude | Speed | Heading |
|---|---|---|---|---|---|
| 2026-05-04 08:25 | 51.99685 | -12.82085 | 35142 ft | 433 kts | 87° |
| 2026-05-04 08:27 | 51.99318 | -12.42559 | 36346 ft | 447 kts | 87° |
| 2026-05-04 08:28 | 51.99261 | -12.37530 | 36570 ft | 449 kts | 87° |
| 2026-05-04 08:28 | 51.99202 | -12.32443 | 36932 ft | 451 kts | 88° |
| 2026-05-04 08:28 | 51.99140 | -12.27355 | 37300 ft | 451 kts | 88° |
| 2026-05-04 08:28 | 51.99076 | -12.22236 | 37672 ft | 453 kts | 88° |
| 2026-05-04 08:29 | 51.99010 | -12.17155 | 37918 ft | 455 kts | 88° |
| 2026-05-04 08:29 | 51.98942 | -12.12073 | 38188 ft | 456 kts | 88° |
| 2026-05-04 08:29 | 51.98872 | -12.06942 | 38405 ft | 458 kts | 88° |
| 2026-05-04 08:31 | 51.98304 | -11.70513 | 39111 ft | 464 kts | 88° |
| 2026-05-04 08:33 | 51.97516 | -11.28797 | 39125 ft | 467 kts | 89° |
| 2026-05-04 08:35 | 51.96574 | -10.86860 | 39076 ft | 468 kts | 89° |
| 2026-05-04 08:35 | 51.96315 | -10.76346 | 39094 ft | 468 kts | 89° |
| 2026-05-04 08:37 | 51.95331 | -10.39469 | 39096 ft | 470 kts | 89° |
| 2026-05-04 08:38 | 51.95028 | -10.28920 | 39079 ft | 470 kts | 90° |
| 2026-05-04 08:38 | 51.94715 | -10.18356 | 39087 ft | 469 kts | 90° |
| 2026-05-04 08:40 | 51.93369 | -9.76082 | 39052 ft | 472 kts | 90° |
| 2026-05-04 08:41 | 51.93009 | -9.65513 | 39056 ft | 472 kts | 91° |
| 2026-05-04 08:41 | 51.92638 | -9.54924 | 39060 ft | 473 kts | 91° |
| 2026-05-04 08:42 | 51.92256 | -9.44287 | 39065 ft | 471 kts | 90° |
| 2026-05-04 08:42 | 51.91869 | -9.33756 | 39058 ft | 471 kts | 91° |
| 2026-05-04 08:43 | 51.91468 | -9.23122 | 39041 ft | 473 kts | 91° |
| 2026-05-04 08:43 | 51.91056 | -9.12450 | 39051 ft | 473 kts | 91° |
| 2026-05-04 08:44 | 51.90636 | -9.01845 | 39046 ft | 473 kts | 92° |
| 2026-05-04 08:46 | 51.88868 | -8.59535 | 39059 ft | 473 kts | 92° |
| 2026-05-04 08:46 | 51.88404 | -8.48988 | 39047 ft | 473 kts | 92° |
| 2026-05-04 08:47 | 51.87927 | -8.38383 | 39035 ft | 472 kts | 92° |
| 2026-05-04 08:47 | 51.87443 | -8.27835 | 39038 ft | 472 kts | 93° |
| 2026-05-04 08:48 | 51.86947 | -8.17240 | 39044 ft | 472 kts | 93° |
| 2026-05-04 08:48 | 51.86443 | -8.06652 | 39040 ft | 472 kts | 92° |
| 2026-05-04 08:49 | 51.85929 | -7.96073 | 39035 ft | 474 kts | 93° |
| 2026-05-04 08:50 | 51.84051 | -7.58993 | 39038 ft | 473 kts | 93° |
| 2026-05-04 08:51 | 51.83492 | -7.48381 | 39037 ft | 472 kts | 93° |
| 2026-05-04 08:51 | 51.82929 | -7.37866 | 39047 ft | 473 kts | 93° |
| 2026-05-04 08:52 | 51.82347 | -7.27189 | 39044 ft | 475 kts | 94° |
| 2026-05-04 08:52 | 51.81757 | -7.16547 | 39037 ft | 474 kts | 94° |
| 2026-05-04 08:54 | 51.79308 | -6.74111 | 39035 ft | 475 kts | 94° |
| 2026-05-04 08:55 | 51.78670 | -6.63473 | 39038 ft | 475 kts | 94° |
| 2026-05-04 08:55 | 51.77905 | -6.52919 | 39025 ft | 476 kts | 96° |
| 2026-05-04 09:01 | 51.67358 | -5.41956 | 39006 ft | 477 kts | 98° |
| 2026-05-04 09:01 | 51.66340 | -5.31843 | 39011 ft | 477 kts | 99° |
| 2026-05-04 09:02 | 51.65248 | -5.21094 | 38999 ft | 478 kts | 99° |
| 2026-05-04 09:02 | 51.64168 | -5.10559 | 38999 ft | 478 kts | 99° |
| 2026-05-04 09:03 | 51.63076 | -5.00008 | 39006 ft | 477 kts | 99° |
| 2026-05-04 09:03 | 51.61972 | -4.89434 | 39024 ft | 477 kts | 99° |
| 2026-05-04 09:04 | 51.60851 | -4.78795 | 39019 ft | 477 kts | 99° |
| 2026-05-04 09:04 | 51.59729 | -4.68250 | 39005 ft | 479 kts | 99° |
| 2026-05-04 09:05 | 51.58602 | -4.57746 | 39003 ft | 477 kts | 99° |
| 2026-05-04 09:05 | 51.57465 | -4.47236 | 39009 ft | 478 kts | 99° |
| 2026-05-04 09:06 | 51.56313 | -4.36690 | 39002 ft | 479 kts | 99° |
| 2026-05-04 09:08 | 51.51627 | -3.94678 | 38999 ft | 479 kts | 100° |
| 2026-05-04 09:08 | 51.50432 | -3.84192 | 39004 ft | 478 kts | 100° |
| 2026-05-04 09:09 | 51.49232 | -3.73745 | 39002 ft | 479 kts | 100° |
| 2026-05-04 09:09 | 51.48017 | -3.63205 | 39005 ft | 479 kts | 98° |
| 2026-05-04 09:10 | 51.47327 | -3.52584 | 39006 ft | 480 kts | 95° |
| 2026-05-04 09:10 | 51.46716 | -3.41968 | 38957 ft | 475 kts | 95° |
| 2026-05-04 09:10 | 51.46410 | -3.36737 | 38412 ft | 473 kts | 95° |
| 2026-05-04 09:11 | 51.46096 | -3.31437 | 37626 ft | 478 kts | 96° |
| 2026-05-04 09:11 | 51.45781 | -3.26143 | 36823 ft | 482 kts | 96° |
| 2026-05-04 09:11 | 51.45457 | -3.20781 | 36038 ft | 484 kts | 96° |
| 2026-05-04 09:11 | 51.45136 | -3.15483 | 35238 ft | 486 kts | 95° |
| 2026-05-04 09:12 | 51.44805 | -3.10079 | 34363 ft | 487 kts | 95° |
| 2026-05-04 09:12 | 51.44473 | -3.04692 | 33424 ft | 487 kts | 96° |
| 2026-05-04 09:14 | 51.42137 | -2.67920 | 28457 ft | 454 kts | 98° |
| 2026-05-04 09:14 | 51.41813 | -2.62953 | 27885 ft | 447 kts | 97° |
| 2026-05-04 09:14 | 51.41488 | -2.58021 | 27323 ft | 441 kts | 97° |
| 2026-05-04 09:14 | 51.41166 | -2.53164 | 26746 ft | 436 kts | 98° |
| 2026-05-04 09:15 | 51.40851 | -2.48449 | 26180 ft | 430 kts | 97° |
| 2026-05-04 09:15 | 51.40534 | -2.43721 | 25617 ft | 425 kts | 97° |
| 2026-05-04 09:15 | 51.40215 | -2.39008 | 25036 ft | 432 kts | 97° |
| 2026-05-04 09:15 | 51.39887 | -2.34195 | 24418 ft | 438 kts | 98° |
| 2026-05-04 09:17 | 51.37300 | -1.97106 | 19599 ft | 405 kts | 98° |
| 2026-05-04 09:18 | 51.36980 | -1.92644 | 18983 ft | 401 kts | 98° |
| 2026-05-04 09:18 | 51.36666 | -1.88277 | 18389 ft | 398 kts | 98° |
| 2026-05-04 09:18 | 51.36349 | -1.83899 | 17800 ft | 394 kts | 98° |
| 2026-05-04 09:18 | 51.36031 | -1.79518 | 17204 ft | 391 kts | 98° |
| 2026-05-04 09:19 | 51.35708 | -1.75105 | 16582 ft | 388 kts | 98° |
| 2026-05-04 09:19 | 51.35391 | -1.70796 | 15980 ft | 384 kts | 98° |
| 2026-05-04 09:19 | 51.35069 | -1.66436 | 15366 ft | 381 kts | 98° |
| 2026-05-04 09:19 | 51.34750 | -1.62137 | 14754 ft | 379 kts | 98° |
| 2026-05-04 09:20 | 51.34427 | -1.57815 | 14133 ft | 375 kts | 98° |
| 2026-05-04 09:20 | 51.34112 | -1.53617 | 13661 ft | 369 kts | 98° |
| 2026-05-04 09:20 | 51.33798 | -1.49453 | 13487 ft | 373 kts | 97° |
| 2026-05-04 09:20 | 51.33487 | -1.45351 | 13278 ft | 371 kts | 98° |
| 2026-05-04 09:21 | 51.33175 | -1.41254 | 13036 ft | 370 kts | 98° |
| 2026-05-04 09:21 | 51.32865 | -1.37200 | 12785 ft | 369 kts | 98° |
| 2026-05-04 09:21 | 51.32575 | -1.33423 | 12550 ft | 367 kts | 98° |
| 2026-05-04 09:21 | 51.32251 | -1.29221 | 12301 ft | 366 kts | 98° |
| 2026-05-04 09:22 | 51.31939 | -1.25196 | 12050 ft | 364 kts | 98° |
| 2026-05-04 09:22 | 51.31625 | -1.21168 | 11806 ft | 363 kts | 98° |
| 2026-05-04 09:22 | 51.31333 | -1.17164 | 11555 ft | 362 kts | 95° |
| 2026-05-04 09:22 | 51.31255 | -1.13197 | 11314 ft | 355 kts | 92° |
| 2026-05-04 09:23 | 51.31227 | -1.09278 | 11074 ft | 343 kts | 91° |
| 2026-05-04 09:23 | 51.31202 | -1.05547 | 10849 ft | 331 kts | 92° |
| 2026-05-04 09:23 | 51.31173 | -1.01937 | 10629 ft | 321 kts | 92° |
| 2026-05-04 09:23 | 51.31141 | -0.98432 | 10416 ft | 311 kts | 92° |
| 2026-05-04 09:25 | 51.30908 | -0.76211 | 8953 ft | 273 kts | 92° |
| 2026-05-04 09:25 | 51.30873 | -0.73204 | 8762 ft | 272 kts | 92° |
| 2026-05-04 09:26 | 51.30837 | -0.70172 | 8581 ft | 271 kts | 92° |
| 2026-05-04 09:26 | 51.30801 | -0.67169 | 8394 ft | 270 kts | 91° |
| 2026-05-04 09:26 | 51.30764 | -0.64221 | 8206 ft | 269 kts | 91° |
| 2026-05-04 09:26 | 51.30726 | -0.61212 | 8022 ft | 268 kts | 91° |
| 2026-05-04 09:27 | 51.30688 | -0.58240 | 7837 ft | 267 kts | 91° |
| 2026-05-04 09:27 | 51.30650 | -0.55293 | 7650 ft | 265 kts | 91° |
| 2026-05-04 09:27 | 51.30611 | -0.52363 | 7469 ft | 259 kts | 91° |
| 2026-05-04 09:27 | 51.30572 | -0.49560 | 7291 ft | 252 kts | 91° |
| 2026-05-04 09:28 | 51.30534 | -0.46784 | 7123 ft | 246 kts | 91° |
| 2026-05-04 09:28 | 51.30636 | -0.44127 | 7007 ft | 238 kts | 78° |
| 2026-05-04 09:28 | 51.31032 | -0.41521 | 7000 ft | 240 kts | 75° |
| 2026-05-04 09:28 | 51.31466 | -0.38943 | 7001 ft | 241 kts | 75° |
| 2026-05-04 09:29 | 51.31898 | -0.36373 | 7002 ft | 241 kts | 75° |
| 2026-05-04 09:29 | 51.32336 | -0.33750 | 7000 ft | 242 kts | 76° |
| 2026-05-04 09:29 | 51.32762 | -0.31188 | 7001 ft | 241 kts | 76° |
| 2026-05-04 09:29 | 51.33194 | -0.28591 | 7001 ft | 241 kts | 76° |
| 2026-05-04 09:30 | 51.33625 | -0.25994 | 7000 ft | 242 kts | 76° |
| 2026-05-04 09:30 | 51.34065 | -0.23352 | 6736 ft | 246 kts | 76° |
| 2026-05-04 09:30 | 51.34502 | -0.20732 | 6425 ft | 246 kts | 76° |
| 2026-05-04 09:30 | 51.34940 | -0.18095 | 6150 ft | 245 kts | 76° |
| 2026-05-04 09:31 | 51.35377 | -0.15462 | 5886 ft | 243 kts | 75° |
| 2026-05-04 09:31 | 51.35816 | -0.12862 | 5576 ft | 243 kts | 71° |
| 2026-05-04 09:31 | 51.36708 | -0.10617 | 5286 ft | 241 kts | 41° |
| 2026-05-04 09:31 | 51.38166 | -0.09417 | 5018 ft | 239 kts | 11° |
| 2026-05-04 09:32 | 51.39811 | -0.09308 | 4765 ft | 236 kts | 359° |
| 2026-05-04 09:32 | 51.41496 | -0.09390 | 4116 ft | 252 kts | 359° |
| 2026-05-04 09:34 | 51.47789 | -0.20720 | 2876 ft | 236 kts | 272° |
| 2026-05-04 09:34 | 51.47786 | -0.23331 | 2561 ft | 232 kts | 272° |
| 2026-05-04 09:34 | 51.47786 | -0.25893 | 2259 ft | 224 kts | 272° |
| 2026-05-04 09:34 | 51.47787 | -0.28269 | 1975 ft | 203 kts | 272° |
| 2026-05-04 09:35 | 51.47789 | -0.30298 | 1733 ft | 189 kts | 273° |
| 2026-05-04 09:35 | 51.47788 | -0.32326 | 1489 ft | 178 kts | 273° |
| 2026-05-04 09:35 | 51.47785 | -0.34242 | 1243 ft | 163 kts | 272° |
| 2026-05-04 09:35 | 51.47783 | -0.35969 | 1039 ft | 152 kts | 273° |
| 2026-05-04 09:37 | 51.47757 | -0.46287 | 84 ft | 52 kts | 270° |
| 2026-05-04 09:37 | 51.47706 | -0.46705 | 84 ft | 32 kts | 244° |
| 2026-05-04 09:38 | 51.47657 | -0.46840 | 84 ft | 9 kts | 227° |
| 2026-05-04 09:38 | 51.47599 | -0.46898 | 84 ft | 9 kts | 217° |
| 2026-05-04 09:38 | 51.47581 | -0.46976 | 84 ft | 10 kts | 269° |
| 2026-05-04 09:38 | 51.47580 | -0.47139 | 84 ft | 18 kts | 270° |
| 2026-05-04 09:39 | 51.47580 | -0.47356 | 84 ft | 22 kts | 270° |
| 2026-05-04 09:39 | 51.47579 | -0.47648 | 84 ft | 27 kts | 270° |
| 2026-05-04 09:39 | 51.47579 | -0.47946 | 84 ft | 26 kts | 271° |
| 2026-05-04 09:39 | 51.47578 | -0.48235 | 84 ft | 23 kts | 270° |
| 2026-05-04 09:40 | 51.47538 | -0.48358 | 84 ft | 13 kts | 189° |
| 2026-05-04 09:40 | 51.47432 | -0.48362 | 84 ft | 15 kts | 179° |
| 2026-05-04 09:40 | 51.47321 | -0.48361 | 84 ft | 16 kts | 180° |
| 2026-05-04 09:40 | 51.47207 | -0.48362 | 84 ft | 16 kts | 181° |
| 2026-05-04 09:41 | 51.47094 | -0.48358 | 84 ft | 16 kts | 180° |